Impacts TAF Board INFO
FOR SITUATIONAL AWARENESS. NOT TO BE USED FOR FLIGHT PLANNING PURPOSES.
IDs:

KLAS - Las Vegas/McCarran I, NV, US

Issued at 0244 UTC 20 Feb 2018
Updated at 0345 UTC 20 Feb 2018
Potential Impact None Slight Moderate High
Time0256Z 20/04Z 20/05Z 20/06Z 20/07Z 20/08Z 20/09Z 20/10Z 20/11Z 20/12Z 20/13Z 20/14Z 20/15Z 20/16Z>>
Type OBS PRVL PRVL PRVL PRVL PRVL PRVL PRVL PRVL PRVL PRVL PRVL PRVL PRVL
VIS 10 >6 >6 >6 >6 >6 >6 >6 >6 >6 >6 >6 >6 >6
CIG -- -- -- -- -- -- -- -- -- -- -- -- -- --
Cover FEW FEW FEW FEW FEW FEW FEW FEW SKC SKC SKC SKC SKC SKC
FltCat VFR VFR VFR VFR VFR VFR VFR VFR VFR VFR VFR VFR VFR VFR
WX -- -- -- -- -- -- -- -- -- -- -- -- -- --
WDir 300 280 280 280 280 280 280 280 250 250 250 250 250 250
WSpd 10 11 11 11 11 11 11 11 8 8 8 8 8 8
WGst -- -- -- -- -- -- -- -- -- -- -- -- -- --

Raw TAF
KLAS 200244Z 2003/2106 28011KT P6SM FEW120
  FM201100 25008KT P6SM SKC
  FM201800 07007KT P6SM FEW120
  FM210300 19006KT P6SM SKC


Raw METAR
KLAS 200256Z 30010KT 10SM FEW070 08/M21 A2980 RMK AO2 SLP091 T00781206 51025
KLAS 200156Z 30006KT 10SM FEW070 FEW110 08/M19 A2978 RMK AO2 SLP083 T00781194
KLAS 200056Z 30012KT 10SM FEW070 SCT110 09/M18 A2975 RMK AO2 SLP070 VIRGA NE-SE T00891178

METAR Board
Radar Display
Forecast Discussion

FOR SITUATIONAL AWARENESS. NOT TO BE USED FOR FLIGHT PLANNING PURPOSES.